Flight Track Log - Related Links

Times and Time Zones

All times are in EDT time to prevent confusion due to time zone crossing. See the USC105 flight status page for this flight to view local times or setup timezone preferences in your user account.

Time Position Orientation Groundspeed Altitude Reporting Facility
EDT Latitude Longitude Course Direction KTS MPH feet Rate Location/Type
Tue 09:51:39 PM 39.8081 -82.9397 225° Southwest 121 139 800  Level Indianapolis Center
Tue 09:52:09 PM 39.7964 -82.9547 225° Southwest 112 129 1,500 1,059 Climbing Indianapolis Center
Tue 09:53:04 PM 39.7769 -82.9781 223° Southwest 113 130 2,300 828 Climbing Indianapolis Center
Tue 09:54:05 PM 39.7494 -82.9428 135° Southeast 134 154 3,100 843 Climbing Indianapolis Center
Tue 09:55:05 PM 39.7714 -82.8947 59° Northeast 165 190 4,000 878 Climbing Indianapolis Center
Tue 09:56:08 PM 39.8014 -82.8514 48° Northeast 160 184 4,900 864 Climbing Indianapolis Center
Tue 09:57:10 PM 39.8347 -82.8128 42° Northeast 159 183 5,800 927 Climbing Indianapolis Center
Tue 09:58:11 PM 39.8694 -82.7719 42° Northeast 165 190 6,800 585 Climbing Indianapolis Center
Tue 09:59:13 PM 39.9083 -82.7297 40° Northeast 180 207 7,000 98 Climbing Indianapolis Center
Tue 10:00:14 PM 39.9503 -82.6739 46° Northeast 210 242 7,000  Level Indianapolis Center
Tue 10:01:15 PM 39.9981 -82.6331 33° Northeast 207 238 7,000  Level Indianapolis Center
Tue 10:02:17 PM 40.0525 -82.5761 39° Northeast 212 244 7,000  Level Indianapolis Center
Tue 10:03:18 PM 40.0992 -82.5269 39° Northeast 213 245 7,000  Level Indianapolis Center
Tue 10:04:20 PM 40.1425 -82.4722 44° Northeast 215 247 7,000  Level Indianapolis Center
Tue 10:05:21 PM 40.1892 -82.4233 39° Northeast 213 245 7,000 49 Level Indianapolis Center
Tue 10:06:23 PM 40.2397 -82.3833 31° Northeast 212 244 7,100  Climbing Indianapolis Center
Tue 10:07:24 PM 40.2922 -82.3397 32° Northeast 213 245 7,000 -49 Descending Indianapolis Center
Tue 10:08:26 PM 40.3447 -82.3022 29° Northeast 210 242 7,000  Level Indianapolis Center
Tue 10:09:27 PM 40.4003 -82.2792 18° North 206 237 7,000  Level Indianapolis Center
Tue 10:10:29 PM 40.4556 -82.2528 20° North 209 241 7,000  Level Indianapolis Center
Tue 10:11:30 PM 40.5106 -82.2250 21° North 209 241 7,000 -390 Level Indianapolis Center
Tue 10:12:32 PM 40.5675 -82.1925 23° Northeast 219 252 6,200 -732 Descending Indianapolis Center
Tue 10:13:33 PM 40.6278 -82.1617 21° North 228 262 5,500 -639 Descending Indianapolis Center
Tue 10:14:34 PM 40.6886 -82.1308 21° North 231 266 4,900 -293 Descending Indianapolis Center
Tue 10:15:36 PM 40.7431 -82.0997 23° Northeast 216 249 4,900  Level Indianapolis Center
Tue 10:16:37 PM 40.7975 -82.0714 22° Northeast 210 242 4,900 49 Level Indianapolis Center
Tue 10:17:39 PM 40.8597 -82.0372 23° Northeast 206 237 5,000  Climbing Indianapolis Center
Tue 10:18:40 PM 40.9136 -82.0092 21° North 206 237 4,900 -49 Descending Indianapolis Center
Tue 10:19:42 PM 40.9689 -81.9775 23° Northeast 212 244 4,900 49 Level Indianapolis Center
Tue 10:20:43 PM 41.0236 -81.9478 22° Northeast 211 243 5,000 -98 Climbing Indianapolis Center
Tue 10:21:45 PM 41.0636 -81.8867 49° Northeast 230 265 4,700 -390 Descending Indianapolis Center
Tue 10:22:46 PM 41.1047 -81.8217 50° Northeast 232 267 4,200 -496 Descending Indianapolis Center
Tue 10:23:58 PM 41.1369 -81.7383 63° Northeast 216 249 3,600 -500 Descending Cleveland Center

Login

Don't have an account? Register now (free) for customized features, flight alerts, and more!